sensor_id;sensor_type;location;lat;lon;timestamp;temperature;humidity
7576;DHT22;3829;50.798;4.358;2023-03-03T00:00:51;2.80;99.90
7576;DHT22;3829;50.798;4.358;2023-03-03T00:03:21;2.80;99.90
7576;DHT22;3829;50.798;4.358;2023-03-03T00:05:47;2.90;99.90
7576;DHT22;3829;50.798;4.358;2023-03-03T00:08:12;2.80;99.90
7576;DHT22;3829;50.798;4.358;2023-03-03T00:10:38;2.80;99.90
7576;DHT22;3829;50.798;4.358;2023-03-03T00:13:11;2.70;99.90
7576;DHT22;3829;50.798;4.358;2023-03-03T00:15:38;2.70;99.90
7576;DHT22;3829;50.798;4.358;2023-03-03T00:20:48;2.70;99.90
7576;DHT22;3829;50.798;4.358;2023-03-03T00:25:55;2.60;99.90
7576;DHT22;3829;50.798;4.358;2023-03-03T00:28:30;2.50;99.90
7576;DHT22;3829;50.798;4.358;2023-03-03T00:30:58;2.60;99.90
7576;DHT22;3829;50.798;4.358;2023-03-03T00:33:32;2.50;99.90
7576;DHT22;3829;50.798;4.358;2023-03-03T00:36:34;2.50;99.90
7576;DHT22;3829;50.798;4.358;2023-03-03T00:39:10;2.50;99.90
7576;DHT22;3829;50.798;4.358;2023-03-03T00:41:38;2.40;99.90
7576;DHT22;3829;50.798;4.358;2023-03-03T00:44:30;2.30;99.90
7576;DHT22;3829;50.798;4.358;2023-03-03T00:46:56;2.30;99.90
7576;DHT22;3829;50.798;4.358;2023-03-03T00:49:26;2.40;99.90
7576;DHT22;3829;50.798;4.358;2023-03-03T00:51:52;2.30;99.90
7576;DHT22;3829;50.798;4.358;2023-03-03T00:54:18;2.20;99.90
7576;DHT22;3829;50.798;4.358;2023-03-03T00:56:44;2.20;99.90
7576;DHT22;3829;50.798;4.358;2023-03-03T00:59:10;2.20;99.90
7576;DHT22;3829;50.798;4.358;2023-03-03T01:01:35;2.20;99.90
7576;DHT22;3829;50.798;4.358;2023-03-03T01:04:01;2.20;99.90
7576;DHT22;3829;50.798;4.358;2023-03-03T01:06:27;2.10;99.90
7576;DHT22;3829;50.798;4.358;2023-03-03T01:08:52;2.10;99.90
7576;DHT22;3829;50.798;4.358;2023-03-03T01:11:23;2.00;99.90
7576;DHT22;3829;50.798;4.358;2023-03-03T01:13:51;2.00;99.90
7576;DHT22;3829;50.798;4.358;2023-03-03T01:16:18;2.10;99.90
7576;DHT22;3829;50.798;4.358;2023-03-03T01:18:44;2.00;99.90
7576;DHT22;3829;50.798;4.358;2023-03-03T01:21:10;2.00;99.90
7576;DHT22;3829;50.798;4.358;2023-03-03T01:23:36;2.00;99.90
7576;DHT22;3829;50.798;4.358;2023-03-03T01:26:03;2.10;99.90
7576;DHT22;3829;50.798;4.358;2023-03-03T01:28:29;2.00;99.90
7576;DHT22;3829;50.798;4.358;2023-03-03T01:30:59;1.90;99.90
7576;DHT22;3829;50.798;4.358;2023-03-03T01:33:25;1.90;99.90
7576;DHT22;3829;50.798;4.358;2023-03-03T01:35:51;1.90;99.90
7576;DHT22;3829;50.798;4.358;2023-03-03T01:38:16;2.00;99.90
7576;DHT22;3829;50.798;4.358;2023-03-03T01:40:42;1.90;99.90
7576;DHT22;3829;50.798;4.358;2023-03-03T01:43:07;1.90;99.90
7576;DHT22;3829;50.798;4.358;2023-03-03T01:48:33;1.90;99.90
7576;DHT22;3829;50.798;4.358;2023-03-03T01:51:04;1.90;99.90
7576;DHT22;3829;50.798;4.358;2023-03-03T01:53:38;1.90;99.90
7576;DHT22;3829;50.798;4.358;2023-03-03T01:56:06;1.90;99.90
7576;DHT22;3829;50.798;4.358;2023-03-03T01:58:57;1.80;99.90
7576;DHT22;3829;50.798;4.358;2023-03-03T02:01:28;1.90;99.90
7576;DHT22;3829;50.798;4.358;2023-03-03T02:03:55;1.80;99.90
7576;DHT22;3829;50.798;4.358;2023-03-03T02:06:24;1.80;99.90
7576;DHT22;3829;50.798;4.358;2023-03-03T02:11:37;1.80;99.90
7576;DHT22;3829;50.798;4.358;2023-03-03T02:14:04;1.80;99.90
7576;DHT22;3829;50.798;4.358;2023-03-03T02:16:30;1.80;99.90
7576;DHT22;3829;50.798;4.358;2023-03-03T02:18:56;1.80;99.90
7576;DHT22;3829;50.798;4.358;2023-03-03T02:21:23;1.70;99.90
7576;DHT22;3829;50.798;4.358;2023-03-03T02:23:54;1.60;99.90
7576;DHT22;3829;50.798;4.358;2023-03-03T02:26:26;1.80;99.90
7576;DHT22;3829;50.798;4.358;2023-03-03T02:28:52;1.70;99.90
7576;DHT22;3829;50.798;4.358;2023-03-03T02:31:20;1.70;99.90
7576;DHT22;3829;50.798;4.358;2023-03-03T02:33:48;1.70;99.90
7576;DHT22;3829;50.798;4.358;2023-03-03T02:36:21;1.70;99.90
7576;DHT22;3829;50.798;4.358;2023-03-03T02:44:24;1.80;99.90
7576;DHT22;3829;50.798;4.358;2023-03-03T02:46:51;1.80;99.90
7576;DHT22;3829;50.798;4.358;2023-03-03T02:49:23;1.90;99.90
7576;DHT22;3829;50.798;4.358;2023-03-03T02:51:49;1.80;99.90
7576;DHT22;3829;50.798;4.358;2023-03-03T02:54:16;1.80;99.90
7576;DHT22;3829;50.798;4.358;2023-03-03T02:56:42;1.80;99.90
7576;DHT22;3829;50.798;4.358;2023-03-03T02:59:08;1.80;99.90
7576;DHT22;3829;50.798;4.358;2023-03-03T03:01:34;1.80;99.90
7576;DHT22;3829;50.798;4.358;2023-03-03T03:04:08;1.80;99.90
7576;DHT22;3829;50.798;4.358;2023-03-03T03:06:36;1.80;99.90
7576;DHT22;3829;50.798;4.358;2023-03-03T03:09:02;1.80;99.90
7576;DHT22;3829;50.798;4.358;2023-03-03T03:11:28;1.90;99.90
7576;DHT22;3829;50.798;4.358;2023-03-03T03:13:54;1.90;99.90
7576;DHT22;3829;50.798;4.358;2023-03-03T03:16:19;1.90;99.90
7576;DHT22;3829;50.798;4.358;2023-03-03T03:18:45;2.00;99.90
7576;DHT22;3829;50.798;4.358;2023-03-03T03:21:12;2.00;99.90
7576;DHT22;3829;50.798;4.358;2023-03-03T03:23:38;2.10;99.90
7576;DHT22;3829;50.798;4.358;2023-03-03T03:26:04;2.10;99.90
7576;DHT22;3829;50.798;4.358;2023-03-03T03:28:31;2.00;99.90
7576;DHT22;3829;50.798;4.358;2023-03-03T03:30:57;2.00;99.90
7576;DHT22;3829;50.798;4.358;2023-03-03T03:33:23;2.00;99.90
7576;DHT22;3829;50.798;4.358;2023-03-03T03:35:50;2.00;99.90
7576;DHT22;3829;50.798;4.358;2023-03-03T03:38:15;2.00;99.90
7576;DHT22;3829;50.798;4.358;2023-03-03T03:40:42;2.00;99.90
7576;DHT22;3829;50.798;4.358;2023-03-03T03:43:07;2.00;99.90
7576;DHT22;3829;50.798;4.358;2023-03-03T03:45:33;2.00;99.90
7576;DHT22;3829;50.798;4.358;2023-03-03T03:47:59;2.00;99.90
7576;DHT22;3829;50.798;4.358;2023-03-03T03:50:24;2.00;99.90
7576;DHT22;3829;50.798;4.358;2023-03-03T03:52:50;2.00;99.90
7576;DHT22;3829;50.798;4.358;2023-03-03T03:55:16;2.00;99.90
7576;DHT22;3829;50.798;4.358;2023-03-03T03:57:42;2.00;99.90
7576;DHT22;3829;50.798;4.358;2023-03-03T04:00:09;2.00;99.90
7576;DHT22;3829;50.798;4.358;2023-03-03T04:02:35;2.00;99.90
7576;DHT22;3829;50.798;4.358;2023-03-03T04:05:01;1.80;99.90
7576;DHT22;3829;50.798;4.358;2023-03-03T04:07:26;1.90;99.90
7576;DHT22;3829;50.798;4.358;2023-03-03T04:09:52;1.90;99.90
7576;DHT22;3829;50.798;4.358;2023-03-03T04:12:18;1.90;99.90
7576;DHT22;3829;50.798;4.358;2023-03-03T04:14:43;2.00;99.90
7576;DHT22;3829;50.798;4.358;2023-03-03T04:17:27;1.90;99.90
7576;DHT22;3829;50.798;4.358;2023-03-03T04:19:53;2.00;99.90
7576;DHT22;3829;50.798;4.358;2023-03-03T04:22:20;2.00;99.90
7576;DHT22;3829;50.798;4.358;2023-03-03T04:24:45;2.00;99.90
7576;DHT22;3829;50.798;4.358;2023-03-03T04:27:13;1.90;99.90
7576;DHT22;3829;50.798;4.358;2023-03-03T04:29:40;2.10;99.90
7576;DHT22;3829;50.798;4.358;2023-03-03T04:32:06;2.00;99.90
7576;DHT22;3829;50.798;4.358;2023-03-03T04:34:31;2.00;99.90
7576;DHT22;3829;50.798;4.358;2023-03-03T04:36:57;2.00;99.90
7576;DHT22;3829;50.798;4.358;2023-03-03T04:39:23;2.00;99.90
7576;DHT22;3829;50.798;4.358;2023-03-03T04:41:48;2.00;99.90
7576;DHT22;3829;50.798;4.358;2023-03-03T04:44:14;1.90;99.90
7576;DHT22;3829;50.798;4.358;2023-03-03T04:46:40;1.90;99.90
7576;DHT22;3829;50.798;4.358;2023-03-03T04:49:05;1.90;99.90
7576;DHT22;3829;50.798;4.358;2023-03-03T04:51:33;1.80;99.90
7576;DHT22;3829;50.798;4.358;2023-03-03T04:53:58;1.80;99.90
7576;DHT22;3829;50.798;4.358;2023-03-03T04:56:24;1.70;99.90
7576;DHT22;3829;50.798;4.358;2023-03-03T04:58:50;1.70;99.90
7576;DHT22;3829;50.798;4.358;2023-03-03T05:01:15;1.70;99.90
7576;DHT22;3829;50.798;4.358;2023-03-03T05:03:41;1.60;99.90
7576;DHT22;3829;50.798;4.358;2023-03-03T05:06:07;1.60;99.90
7576;DHT22;3829;50.798;4.358;2023-03-03T05:08:32;1.50;99.90
7576;DHT22;3829;50.798;4.358;2023-03-03T05:10:58;1.50;99.90
7576;DHT22;3829;50.798;4.358;2023-03-03T05:13:27;1.50;99.90
7576;DHT22;3829;50.798;4.358;2023-03-03T05:15:54;1.50;99.90
7576;DHT22;3829;50.798;4.358;2023-03-03T05:18:21;1.60;99.90
7576;DHT22;3829;50.798;4.358;2023-03-03T05:20:48;1.60;99.90
7576;DHT22;3829;50.798;4.358;2023-03-03T05:23:14;1.60;99.90
7576;DHT22;3829;50.798;4.358;2023-03-03T05:25:40;1.50;99.90
7576;DHT22;3829;50.798;4.358;2023-03-03T05:28:07;1.50;99.90
7576;DHT22;3829;50.798;4.358;2023-03-03T05:30:33;1.40;99.90
7576;DHT22;3829;50.798;4.358;2023-03-03T05:32:59;1.30;99.90
7576;DHT22;3829;50.798;4.358;2023-03-03T05:35:25;1.40;99.90
7576;DHT22;3829;50.798;4.358;2023-03-03T05:37:50;1.40;99.90
7576;DHT22;3829;50.798;4.358;2023-03-03T05:40:17;1.40;99.90
7576;DHT22;3829;50.798;4.358;2023-03-03T05:42:43;1.40;99.90
7576;DHT22;3829;50.798;4.358;2023-03-03T05:45:09;1.40;99.90
7576;DHT22;3829;50.798;4.358;2023-03-03T05:47:35;1.50;99.90
7576;DHT22;3829;50.798;4.358;2023-03-03T05:50:00;1.70;99.90
7576;DHT22;3829;50.798;4.358;2023-03-03T05:52:26;1.70;99.90
7576;DHT22;3829;50.798;4.358;2023-03-03T05:54:51;1.80;99.90
7576;DHT22;3829;50.798;4.358;2023-03-03T05:57:17;1.90;99.90
7576;DHT22;3829;50.798;4.358;2023-03-03T05:59:43;1.70;99.90
7576;DHT22;3829;50.798;4.358;2023-03-03T06:02:08;1.70;99.90
7576;DHT22;3829;50.798;4.358;2023-03-03T06:04:34;1.60;99.90
7576;DHT22;3829;50.798;4.358;2023-03-03T06:06:59;1.60;99.90
7576;DHT22;3829;50.798;4.358;2023-03-03T06:09:25;1.60;99.90
7576;DHT22;3829;50.798;4.358;2023-03-03T06:11:51;1.60;99.90
7576;DHT22;3829;50.798;4.358;2023-03-03T06:14:21;1.60;99.90
7576;DHT22;3829;50.798;4.358;2023-03-03T06:16:47;1.40;99.90
7576;DHT22;3829;50.798;4.358;2023-03-03T06:19:13;1.40;99.90
7576;DHT22;3829;50.798;4.358;2023-03-03T06:21:40;1.30;99.90
7576;DHT22;3829;50.798;4.358;2023-03-03T06:24:05;1.30;99.90
7576;DHT22;3829;50.798;4.358;2023-03-03T06:26:32;1.20;99.90
7576;DHT22;3829;50.798;4.358;2023-03-03T06:28:58;1.10;99.90
7576;DHT22;3829;50.798;4.358;2023-03-03T06:31:24;1.20;99.90
7576;DHT22;3829;50.798;4.358;2023-03-03T06:33:50;1.10;99.90
7576;DHT22;3829;50.798;4.358;2023-03-03T06:36:17;1.20;99.90
7576;DHT22;3829;50.798;4.358;2023-03-03T06:38:43;1.20;99.90
7576;DHT22;3829;50.798;4.358;2023-03-03T06:41:09;1.20;99.90
7576;DHT22;3829;50.798;4.358;2023-03-03T06:43:35;1.10;99.90
7576;DHT22;3829;50.798;4.358;2023-03-03T06:46:02;1.00;99.90
7576;DHT22;3829;50.798;4.358;2023-03-03T06:48:29;1.10;99.90
7576;DHT22;3829;50.798;4.358;2023-03-03T06:50:59;1.20;99.90
7576;DHT22;3829;50.798;4.358;2023-03-03T06:53:25;1.20;99.90
7576;DHT22;3829;50.798;4.358;2023-03-03T06:55:51;1.20;99.90
7576;DHT22;3829;50.798;4.358;2023-03-03T06:58:18;1.30;99.90
7576;DHT22;3829;50.798;4.358;2023-03-03T07:00:55;1.30;99.90
7576;DHT22;3829;50.798;4.358;2023-03-03T07:03:27;1.20;99.90
7576;DHT22;3829;50.798;4.358;2023-03-03T07:05:57;1.30;99.90
7576;DHT22;3829;50.798;4.358;2023-03-03T07:08:23;1.30;99.90
7576;DHT22;3829;50.798;4.358;2023-03-03T07:10:51;1.30;99.90
7576;DHT22;3829;50.798;4.358;2023-03-03T07:15:44;1.30;99.90
7576;DHT22;3829;50.798;4.358;2023-03-03T07:19:13;1.30;99.90
7576;DHT22;3829;50.798;4.358;2023-03-03T07:21:19;1.40;99.90
7576;DHT22;3829;50.798;4.358;2023-03-03T07:23:47;1.50;99.90
7576;DHT22;3829;50.798;4.358;2023-03-03T07:26:16;1.50;99.90
7576;DHT22;3829;50.798;4.358;2023-03-03T07:28:49;1.50;99.90
7576;DHT22;3829;50.798;4.358;2023-03-03T07:33:50;1.60;99.90
7576;DHT22;3829;50.798;4.358;2023-03-03T07:36:49;1.60;99.90
7576;DHT22;3829;50.798;4.358;2023-03-03T07:39:29;1.50;99.90
7576;DHT22;3829;50.798;4.358;2023-03-03T07:42:20;1.40;99.90
7576;DHT22;3829;50.798;4.358;2023-03-03T07:44:46;1.50;99.90
7576;DHT22;3829;50.798;4.358;2023-03-03T07:47:17;1.50;99.90
7576;DHT22;3829;50.798;4.358;2023-03-03T07:49:43;1.50;99.90
7576;DHT22;3829;50.798;4.358;2023-03-03T07:52:37;1.70;99.90
7576;DHT22;3829;50.798;4.358;2023-03-03T07:55:36;1.70;99.90
7576;DHT22;3829;50.798;4.358;2023-03-03T08:03:10;1.60;99.90
7576;DHT22;3829;50.798;4.358;2023-03-03T08:05:37;1.70;99.90
7576;DHT22;3829;50.798;4.358;2023-03-03T08:10:52;1.80;99.90
7576;DHT22;3829;50.798;4.358;2023-03-03T08:13:22;1.70;99.90
7576;DHT22;3829;50.798;4.358;2023-03-03T08:16:34;1.80;99.90
7576;DHT22;3829;50.798;4.358;2023-03-03T08:18:49;1.80;99.90
7576;DHT22;3829;50.798;4.358;2023-03-03T08:23:42;1.70;99.90
7576;DHT22;3829;50.798;4.358;2023-03-03T08:26:09;1.70;99.90
7576;DHT22;3829;50.798;4.358;2023-03-03T08:28:37;1.80;99.90
7576;DHT22;3829;50.798;4.358;2023-03-03T08:31:02;1.80;99.90
7576;DHT22;3829;50.798;4.358;2023-03-03T08:33:28;2.00;99.90
7576;DHT22;3829;50.798;4.358;2023-03-03T08:35:54;2.00;99.90
7576;DHT22;3829;50.798;4.358;2023-03-03T08:38:20;1.90;99.90
7576;DHT22;3829;50.798;4.358;2023-03-03T08:40:47;2.10;99.90
7576;DHT22;3829;50.798;4.358;2023-03-03T08:43:14;2.10;99.90
7576;DHT22;3829;50.798;4.358;2023-03-03T08:45:45;2.10;99.90
7576;DHT22;3829;50.798;4.358;2023-03-03T08:48:11;2.10;99.90
7576;DHT22;3829;50.798;4.358;2023-03-03T08:50:37;2.10;99.90
7576;DHT22;3829;50.798;4.358;2023-03-03T08:53:03;2.10;99.90
7576;DHT22;3829;50.798;4.358;2023-03-03T08:55:28;2.30;99.90
7576;DHT22;3829;50.798;4.358;2023-03-03T08:57:54;2.10;99.90
7576;DHT22;3829;50.798;4.358;2023-03-03T09:00:21;2.10;99.90
7576;DHT22;3829;50.798;4.358;2023-03-03T09:02:48;2.10;99.90
7576;DHT22;3829;50.798;4.358;2023-03-03T09:05:15;2.10;99.90
7576;DHT22;3829;50.798;4.358;2023-03-03T09:07:42;2.10;99.90
7576;DHT22;3829;50.798;4.358;2023-03-03T09:10:11;2.30;99.90
7576;DHT22;3829;50.798;4.358;2023-03-03T09:12:40;2.40;99.90
7576;DHT22;3829;50.798;4.358;2023-03-03T09:15:25;2.40;99.90
7576;DHT22;3829;50.798;4.358;2023-03-03T09:17:52;2.40;99.90
7576;DHT22;3829;50.798;4.358;2023-03-03T09:20:27;2.30;99.90
7576;DHT22;3829;50.798;4.358;2023-03-03T09:22:55;2.10;99.90
7576;DHT22;3829;50.798;4.358;2023-03-03T09:25:36;2.00;99.90
7576;DHT22;3829;50.798;4.358;2023-03-03T09:28:02;2.00;99.90
7576;DHT22;3829;50.798;4.358;2023-03-03T09:30:37;2.00;99.90
7576;DHT22;3829;50.798;4.358;2023-03-03T09:33:28;2.00;99.90
7576;DHT22;3829;50.798;4.358;2023-03-03T09:38:44;2.20;99.90
7576;DHT22;3829;50.798;4.358;2023-03-03T09:56:03;2.40;99.90
7576;DHT22;3829;50.798;4.358;2023-03-03T10:34:49;3.20;99.90
7576;DHT22;3829;50.798;4.358;2023-03-03T10:40:15;3.10;99.90
7576;DHT22;3829;50.798;4.358;2023-03-03T10:42:51;3.30;99.90
7576;DHT22;3829;50.798;4.358;2023-03-03T11:12:15;3.90;99.90
7576;DHT22;3829;50.798;4.358;2023-03-03T11:17:53;4.20;99.90
7576;DHT22;3829;50.798;4.358;2023-03-03T11:25:49;4.20;99.90
7576;DHT22;3829;50.798;4.358;2023-03-03T11:36:51;4.70;99.90
7576;DHT22;3829;50.798;4.358;2023-03-03T11:39:22;4.70;99.90
7576;DHT22;3829;50.798;4.358;2023-03-03T11:42:07;4.70;99.90
7576;DHT22;3829;50.798;4.358;2023-03-03T11:44:40;4.80;99.90
7576;DHT22;3829;50.798;4.358;2023-03-03T11:55:01;4.80;99.90
7576;DHT22;3829;50.798;4.358;2023-03-03T11:57:34;4.80;99.90
7576;DHT22;3829;50.798;4.358;2023-03-03T12:00:39;4.90;99.90
7576;DHT22;3829;50.798;4.358;2023-03-03T12:03:29;4.80;99.90
7576;DHT22;3829;50.798;4.358;2023-03-03T12:08:58;4.90;99.90
7576;DHT22;3829;50.798;4.358;2023-03-03T12:17:28;5.60;99.90
7576;DHT22;3829;50.798;4.358;2023-03-03T12:25:58;5.20;99.90
7576;DHT22;3829;50.798;4.358;2023-03-03T12:28:50;5.30;99.90
7576;DHT22;3829;50.798;4.358;2023-03-03T12:34:07;5.70;99.90
7576;DHT22;3829;50.798;4.358;2023-03-03T12:39:43;5.90;99.90
7576;DHT22;3829;50.798;4.358;2023-03-03T12:42:34;6.20;99.90
7576;DHT22;3829;50.798;4.358;2023-03-03T12:45:13;6.40;99.90
7576;DHT22;3829;50.798;4.358;2023-03-03T12:47:49;6.40;99.90
7576;DHT22;3829;50.798;4.358;2023-03-03T12:56:01;6.40;99.90
7576;DHT22;3829;50.798;4.358;2023-03-03T13:01:47;6.70;99.90
7576;DHT22;3829;50.798;4.358;2023-03-03T13:07:14;6.50;99.90
7576;DHT22;3829;50.798;4.358;2023-03-03T13:10:02;6.50;99.90
7576;DHT22;3829;50.798;4.358;2023-03-03T13:12:52;6.60;99.90
7576;DHT22;3829;50.798;4.358;2023-03-03T13:15:55;6.70;99.90
7576;DHT22;3829;50.798;4.358;2023-03-03T13:21:26;6.20;99.90
7576;DHT22;3829;50.798;4.358;2023-03-03T13:24:15;6.30;99.90
7576;DHT22;3829;50.798;4.358;2023-03-03T13:26:47;6.20;99.90
7576;DHT22;3829;50.798;4.358;2023-03-03T13:29:34;6.60;99.90
7576;DHT22;3829;50.798;4.358;2023-03-03T13:32:16;6.60;99.90
7576;DHT22;3829;50.798;4.358;2023-03-03T13:37:55;6.40;99.90
7576;DHT22;3829;50.798;4.358;2023-03-03T13:40:38;6.30;99.90
7576;DHT22;3829;50.798;4.358;2023-03-03T13:43:14;6.20;99.90
7576;DHT22;3829;50.798;4.358;2023-03-03T13:45:58;6.00;99.90
7576;DHT22;3829;50.798;4.358;2023-03-03T13:48:57;6.00;99.90
7576;DHT22;3829;50.798;4.358;2023-03-03T14:05:16;6.30;99.90
7576;DHT22;3829;50.798;4.358;2023-03-03T14:07:57;6.30;99.90
7576;DHT22;3829;50.798;4.358;2023-03-03T14:15:53;6.40;99.90
7576;DHT22;3829;50.798;4.358;2023-03-03T14:18:32;6.60;99.90
7576;DHT22;3829;50.798;4.358;2023-03-03T14:21:12;6.50;99.90
7576;DHT22;3829;50.798;4.358;2023-03-03T14:24:10;6.60;99.90
7576;DHT22;3829;50.798;4.358;2023-03-03T14:26:46;6.80;99.90
7576;DHT22;3829;50.798;4.358;2023-03-03T14:31:45;7.00;99.90
7576;DHT22;3829;50.798;4.358;2023-03-03T14:34:29;7.10;99.90
7576;DHT22;3829;50.798;4.358;2023-03-03T14:37:22;7.60;99.90
7576;DHT22;3829;50.798;4.358;2023-03-03T14:43:01;8.30;99.90
7576;DHT22;3829;50.798;4.358;2023-03-03T14:45:40;8.70;99.90
7576;DHT22;3829;50.798;4.358;2023-03-03T14:48:26;8.60;99.90
7576;DHT22;3829;50.798;4.358;2023-03-03T14:53:32;8.30;99.90
7576;DHT22;3829;50.798;4.358;2023-03-03T14:58:45;8.70;99.90
7576;DHT22;3829;50.798;4.358;2023-03-03T15:01:32;9.20;99.90
7576;DHT22;3829;50.798;4.358;2023-03-03T15:04:42;9.20;99.90
7576;DHT22;3829;50.798;4.358;2023-03-03T15:06:53;9.10;99.90
7576;DHT22;3829;50.798;4.358;2023-03-03T15:09:36;8.90;99.90
7576;DHT22;3829;50.798;4.358;2023-03-03T15:12:50;8.70;99.90
7576;DHT22;3829;50.798;4.358;2023-03-03T15:22:49;8.70;99.90
7576;DHT22;3829;50.798;4.358;2023-03-03T15:33:06;7.70;99.90
7576;DHT22;3829;50.798;4.358;2023-03-03T15:36:16;7.60;99.90
7576;DHT22;3829;50.798;4.358;2023-03-03T15:39:17;7.40;99.90
7576;DHT22;3829;50.798;4.358;2023-03-03T15:41:49;7.30;99.90
7576;DHT22;3829;50.798;4.358;2023-03-03T15:44:32;7.20;99.90
7576;DHT22;3829;50.798;4.358;2023-03-03T15:47:09;7.20;99.90
7576;DHT22;3829;50.798;4.358;2023-03-03T15:52:42;6.90;99.90
7576;DHT22;3829;50.798;4.358;2023-03-03T16:03:25;7.00;99.90
7576;DHT22;3829;50.798;4.358;2023-03-03T16:11:54;7.00;99.90
7576;DHT22;3829;50.798;4.358;2023-03-03T16:19:54;6.80;99.90
7576;DHT22;3829;50.798;4.358;2023-03-03T16:22:49;6.80;99.90
7576;DHT22;3829;50.798;4.358;2023-03-03T16:28:04;6.70;99.90
7576;DHT22;3829;50.798;4.358;2023-03-03T16:31:01;6.70;99.90
7576;DHT22;3829;50.798;4.358;2023-03-03T16:33:37;6.80;99.90
7576;DHT22;3829;50.798;4.358;2023-03-03T16:39:19;6.90;99.90
7576;DHT22;3829;50.798;4.358;2023-03-03T16:41:58;6.90;99.90
7576;DHT22;3829;50.798;4.358;2023-03-03T16:56:24;6.70;99.90
7576;DHT22;3829;50.798;4.358;2023-03-03T17:26:11;6.00;99.90
7576;DHT22;3829;50.798;4.358;2023-03-03T17:28:55;6.00;99.90
7576;DHT22;3829;50.798;4.358;2023-03-03T17:31:52;6.00;99.90
7576;DHT22;3829;50.798;4.358;2023-03-03T17:46:02;5.90;99.90
7576;DHT22;3829;50.798;4.358;2023-03-03T17:49:33;5.80;99.90
7576;DHT22;3829;50.798;4.358;2023-03-03T17:54:48;5.80;99.90
7576;DHT22;3829;50.798;4.358;2023-03-03T18:22:12;5.50;99.90
7576;DHT22;3829;50.798;4.358;2023-03-03T18:27:35;5.40;99.90
7576;DHT22;3829;50.798;4.358;2023-03-03T18:37:51;5.60;99.90
7576;DHT22;3829;50.798;4.358;2023-03-03T18:42:43;5.60;99.90
7576;DHT22;3829;50.798;4.358;2023-03-03T18:48:09;5.70;99.90
7576;DHT22;3829;50.798;4.358;2023-03-03T18:50:36;5.70;99.90
7576;DHT22;3829;50.798;4.358;2023-03-03T18:53:23;5.90;99.90
7576;DHT22;3829;50.798;4.358;2023-03-03T18:55:53;6.10;99.90
7576;DHT22;3829;50.798;4.358;2023-03-03T19:05:57;6.50;99.90
7576;DHT22;3829;50.798;4.358;2023-03-03T19:08:26;6.40;99.90
7576;DHT22;3829;50.798;4.358;2023-03-03T19:11:00;6.60;99.90
7576;DHT22;3829;50.798;4.358;2023-03-03T19:13:41;6.60;99.90
7576;DHT22;3829;50.798;4.358;2023-03-03T19:23:51;6.70;99.90
7576;DHT22;3829;50.798;4.358;2023-03-03T19:29:02;6.70;99.90
7576;DHT22;3829;50.798;4.358;2023-03-03T19:34:43;6.80;99.90
7576;DHT22;3829;50.798;4.358;2023-03-03T19:37:52;6.80;99.90
7576;DHT22;3829;50.798;4.358;2023-03-03T19:53:33;6.90;99.90
7576;DHT22;3829;50.798;4.358;2023-03-03T19:58:56;6.90;99.90
7576;DHT22;3829;50.798;4.358;2023-03-03T20:01:42;6.90;99.90
7576;DHT22;3829;50.798;4.358;2023-03-03T20:07:26;6.90;99.90
7576;DHT22;3829;50.798;4.358;2023-03-03T20:12:36;6.90;99.90
7576;DHT22;3829;50.798;4.358;2023-03-03T20:23:06;7.00;99.90
7576;DHT22;3829;50.798;4.358;2023-03-03T20:25:44;7.00;99.90
7576;DHT22;3829;50.798;4.358;2023-03-03T20:45:42;6.80;99.90
7576;DHT22;3829;50.798;4.358;2023-03-03T20:48:08;6.70;99.90
7576;DHT22;3829;50.798;4.358;2023-03-03T20:56:07;6.80;99.90
7576;DHT22;3829;50.798;4.358;2023-03-03T21:04:37;6.70;99.90
7576;DHT22;3829;50.798;4.358;2023-03-03T21:07:03;6.70;99.90
7576;DHT22;3829;50.798;4.358;2023-03-03T21:09:32;6.70;99.90
7576;DHT22;3829;50.798;4.358;2023-03-03T21:12:01;6.60;99.90
7576;DHT22;3829;50.798;4.358;2023-03-03T21:14:29;6.70;99.90
7576;DHT22;3829;50.798;4.358;2023-03-03T21:16:58;6.70;99.90
7576;DHT22;3829;50.798;4.358;2023-03-03T21:19:31;6.80;99.90
7576;DHT22;3829;50.798;4.358;2023-03-03T21:21:58;6.70;99.90
7576;DHT22;3829;50.798;4.358;2023-03-03T21:24:51;6.70;99.90
7576;DHT22;3829;50.798;4.358;2023-03-03T21:27:28;6.70;99.90
7576;DHT22;3829;50.798;4.358;2023-03-03T21:30:21;6.80;99.90
7576;DHT22;3829;50.798;4.358;2023-03-03T21:32:48;6.80;99.90
7576;DHT22;3829;50.798;4.358;2023-03-03T21:35:16;6.80;99.90
7576;DHT22;3829;50.798;4.358;2023-03-03T21:37:45;6.70;99.90
7576;DHT22;3829;50.798;4.358;2023-03-03T21:40:14;6.60;99.90
7576;DHT22;3829;50.798;4.358;2023-03-03T21:42:41;6.40;99.90
7576;DHT22;3829;50.798;4.358;2023-03-03T21:45:10;6.40;99.90
7576;DHT22;3829;50.798;4.358;2023-03-03T21:47:36;6.60;99.90
7576;DHT22;3829;50.798;4.358;2023-03-03T21:50:02;6.70;99.90
7576;DHT22;3829;50.798;4.358;2023-03-03T21:52:28;6.60;99.90
7576;DHT22;3829;50.798;4.358;2023-03-03T21:54:53;6.70;99.90
7576;DHT22;3829;50.798;4.358;2023-03-03T21:57:19;6.70;99.90
7576;DHT22;3829;50.798;4.358;2023-03-03T21:59:45;6.60;99.90
7576;DHT22;3829;50.798;4.358;2023-03-03T22:02:11;6.60;99.90
7576;DHT22;3829;50.798;4.358;2023-03-03T22:04:37;6.70;99.90
7576;DHT22;3829;50.798;4.358;2023-03-03T22:07:03;6.70;99.90
7576;DHT22;3829;50.798;4.358;2023-03-03T22:09:29;6.60;99.90
7576;DHT22;3829;50.798;4.358;2023-03-03T22:11:54;6.60;99.90
7576;DHT22;3829;50.798;4.358;2023-03-03T22:14:20;6.70;99.90
7576;DHT22;3829;50.798;4.358;2023-03-03T22:16:46;6.80;99.90
7576;DHT22;3829;50.798;4.358;2023-03-03T22:19:11;6.70;99.90
7576;DHT22;3829;50.798;4.358;2023-03-03T22:21:38;6.50;99.90
7576;DHT22;3829;50.798;4.358;2023-03-03T22:24:05;6.50;99.90
7576;DHT22;3829;50.798;4.358;2023-03-03T22:26:31;6.60;99.90
7576;DHT22;3829;50.798;4.358;2023-03-03T22:28:56;6.60;99.90
7576;DHT22;3829;50.798;4.358;2023-03-03T22:31:22;6.60;99.90
7576;DHT22;3829;50.798;4.358;2023-03-03T22:33:48;6.70;99.90
7576;DHT22;3829;50.798;4.358;2023-03-03T22:36:15;6.70;99.90
7576;DHT22;3829;50.798;4.358;2023-03-03T22:38:41;6.60;99.90
7576;DHT22;3829;50.798;4.358;2023-03-03T22:41:07;6.60;99.90
7576;DHT22;3829;50.798;4.358;2023-03-03T22:43:33;6.40;99.90
7576;DHT22;3829;50.798;4.358;2023-03-03T22:45:58;6.30;99.90
7576;DHT22;3829;50.798;4.358;2023-03-03T22:48:25;6.30;99.90
7576;DHT22;3829;50.798;4.358;2023-03-03T22:50:51;6.20;99.90
7576;DHT22;3829;50.798;4.358;2023-03-03T22:53:18;6.20;99.90
7576;DHT22;3829;50.798;4.358;2023-03-03T22:55:44;6.20;99.90
7576;DHT22;3829;50.798;4.358;2023-03-03T22:58:10;6.30;99.90
7576;DHT22;3829;50.798;4.358;2023-03-03T23:00:36;6.20;99.90
7576;DHT22;3829;50.798;4.358;2023-03-03T23:03:04;6.20;99.90
7576;DHT22;3829;50.798;4.358;2023-03-03T23:05:30;6.20;99.90
7576;DHT22;3829;50.798;4.358;2023-03-03T23:07:56;6.10;99.90
7576;DHT22;3829;50.798;4.358;2023-03-03T23:10:21;6.10;99.90
7576;DHT22;3829;50.798;4.358;2023-03-03T23:12:47;6.20;99.90
7576;DHT22;3829;50.798;4.358;2023-03-03T23:15:12;6.20;99.90
7576;DHT22;3829;50.798;4.358;2023-03-03T23:17:42;6.00;99.90
7576;DHT22;3829;50.798;4.358;2023-03-03T23:20:12;6.10;99.90
7576;DHT22;3829;50.798;4.358;2023-03-03T23:22:38;6.10;99.90
7576;DHT22;3829;50.798;4.358;2023-03-03T23:25:03;6.20;99.90
7576;DHT22;3829;50.798;4.358;2023-03-03T23:27:29;6.10;99.90
7576;DHT22;3829;50.798;4.358;2023-03-03T23:29:55;6.20;99.90
7576;DHT22;3829;50.798;4.358;2023-03-03T23:32:20;6.10;99.90
7576;DHT22;3829;50.798;4.358;2023-03-03T23:34:51;6.20;99.90
7576;DHT22;3829;50.798;4.358;2023-03-03T23:37:16;6.10;99.90
7576;DHT22;3829;50.798;4.358;2023-03-03T23:39:42;6.00;99.90
7576;DHT22;3829;50.798;4.358;2023-03-03T23:42:08;5.90;99.90
7576;DHT22;3829;50.798;4.358;2023-03-03T23:44:34;6.00;99.90
7576;DHT22;3829;50.798;4.358;2023-03-03T23:46:59;6.00;99.90
7576;DHT22;3829;50.798;4.358;2023-03-03T23:49:25;6.10;99.90